Time;durP1;ratioP1;P1;durP2;ratioP2;P2;SDS_P1;SDS_P2;PMS_P1;PMS_P2;Temp;Humidity;BMP_temperature;BMP_pressure;BME280_temperature;BME280_humidity;BME280_pressure;Samples;Min_cycle;Max_cycle;Signal;HPM_P1;HPM_P2
2023/05/17 00:00:37;;;;;;;6.68;1.40;;;;;;;11.49;50.05;101571.72;4977646;28;20038;-36
2023/05/17 00:03:03;;;;;;;9.90;2.33;;;;;;;11.44;50.33;101571.97;4972838;28;20041;-36
2023/05/17 00:05:28;;;;;;;4.35;1.00;;;;;;;11.30;50.83;101579.69;4975320;28;20502;-37
2023/05/17 00:07:54;;;;;;;7.35;1.15;;;;;;;11.22;51.09;101574.78;4977583;28;20198;-36
2023/05/17 00:10:20;;;;;;;11.10;1.58;;;;;;;11.22;51.06;101572.13;4962052;28;20068;-36
2023/05/17 00:12:48;;;;;;;7.65;1.90;;;;;;;11.23;51.47;101570.34;4991770;28;20064;-36
2023/05/17 00:15:13;;;;;;;8.27;2.72;;;;;;;11.15;51.68;101573.34;4993083;28;20038;-36
2023/05/17 00:17:39;;;;;;;9.60;1.73;;;;;;;11.13;51.89;101564.66;4970180;28;20423;-36
2023/05/17 00:20:05;;;;;;;7.82;1.92;;;;;;;11.09;52.04;101574.47;4986014;28;20979;-36
2023/05/17 00:22:31;;;;;;;6.78;1.73;;;;;;;11.03;52.24;101568.66;4976561;28;20038;-36
2023/05/17 00:24:56;;;;;;;9.10;1.70;;;;;;;10.97;52.99;101565.34;4987936;28;20038;-37
2023/05/17 00:27:22;;;;;;;7.28;2.38;;;;;;;10.86;53.41;101562.38;4963443;28;20072;-37
2023/05/17 00:29:48;;;;;;;8.68;1.95;;;;;;;10.87;53.33;101564.09;4988346;28;20027;-36
2023/05/17 00:32:13;;;;;;;5.43;1.60;;;;;;;10.81;54.16;101573.13;4991185;28;20489;-36
2023/05/17 00:34:39;;;;;;;11.25;2.33;;;;;;;10.86;53.70;101567.63;4964049;28;20073;-36
2023/05/17 00:37:07;;;;;;;8.18;1.95;;;;;;;10.79;54.33;101567.06;4966953;28;20021;-36
2023/05/17 00:39:33;;;;;;;9.60;2.55;;;;;;;10.82;54.38;101560.78;4989505;28;20034;-36
2023/05/17 00:42:02;;;;;;;8.88;2.05;;;;;;;10.83;54.19;101566.00;4965267;28;20075;-35
2023/05/17 00:44:30;;;;;;;9.57;2.65;;;;;;;10.86;54.24;101562.38;4977637;28;20392;-36
2023/05/17 00:46:58;;;;;;;5.82;1.80;;;;;;;10.86;54.53;101567.63;4976195;28;20691;-36
2023/05/17 00:49:24;;;;;;;9.40;2.63;;;;;;;10.87;54.43;101564.09;4977504;28;20041;-36
2023/05/17 00:51:51;;;;;;;8.85;2.22;;;;;;;10.86;54.61;101567.63;4959335;28;20057;-36
2023/05/17 00:54:17;;;;;;;7.53;2.40;;;;;;;10.90;54.33;101563.94;4992701;28;20040;-36
2023/05/17 00:56:43;;;;;;;8.30;2.90;;;;;;;10.94;54.41;101570.78;4987329;28;20104;-36
2023/05/17 00:59:14;;;;;;;8.15;2.40;;;;;;;10.93;54.72;101574.34;4970048;28;20095;-36
2023/05/17 01:01:43;;;;;;;6.18;1.83;;;;;;;10.90;55.04;101568.34;4991139;28;20493;-36
2023/05/17 01:04:12;;;;;;;6.18;2.60;;;;;;;10.93;54.86;101574.34;4994009;28;20025;-36
2023/05/17 01:06:38;;;;;;;12.45;3.20;;;;;;;10.86;55.02;101572.91;4989044;28;20088;-36
2023/05/17 01:09:06;;;;;;;8.23;2.72;;;;;;;10.92;55.05;101572.63;4976501;28;20038;-36
2023/05/17 01:11:43;;;;;;;6.32;2.22;;;;;;;10.84;55.82;101574.75;4953877;28;20042;-36
2023/05/17 01:14:33;;;;;;;8.80;2.65;;;;;;;10.81;56.47;101575.75;4989686;28;20649;-37
2023/05/17 01:17:10;;;;;;;8.93;3.25;;;;;;;10.71;55.89;101578.88;4993897;28;20018;-36
2023/05/17 01:20:18;;;;;;;7.78;2.28;;;;;;;10.80;56.77;101565.31;4972266;28;20531;-36
2023/05/17 01:23:02;;;;;;;6.60;2.28;;;;;;;10.68;56.28;101574.59;4985491;28;20097;-36
2023/05/17 01:25:39;;;;;;;6.00;1.63;;;;;;;10.64;56.56;101573.03;4986624;28;20027;-36
2023/05/17 01:28:06;;;;;;;12.48;2.50;;;;;;;10.57;56.74;101575.06;4990269;28;20033;-35
2023/05/17 01:30:33;;;;;;;9.80;2.25;;;;;;;11.15;55.50;101572.50;4990174;28;20038;-36
2023/05/17 01:33:01;;;;;;;10.52;2.92;;;;;;;11.09;55.75;101565.75;4972052;28;20036;-36
2023/05/17 01:35:29;;;;;;;11.30;3.08;;;;;;;10.58;56.87;101574.16;4988766;28;21158;-36
2023/05/17 01:37:55;;;;;;;6.45;2.28;;;;;;;10.60;56.99;101572.31;4988422;28;20124;-36
2023/05/17 01:40:22;;;;;;;6.00;2.67;;;;;;;10.57;57.29;101571.59;4978924;28;20427;-36
2023/05/17 01:42:53;;;;;;;8.98;2.58;;;;;;;10.51;57.92;101573.56;4989023;28;20038;-36
2023/05/17 01:45:40;;;;;;;10.03;2.60;;;;;;;10.48;58.66;101572.88;5003280;28;20152;-36
2023/05/17 01:48:30;;;;;;;7.13;2.40;;;;;;;10.49;59.62;101579.84;4991618;28;20285;-37
2023/05/17 01:50:57;;;;;;;10.50;2.50;;;;;;;10.52;57.62;101585.81;4989792;28;20036;-37
2023/05/17 01:53:30;;;;;;;8.82;2.75;;;;;;;10.57;57.79;101584.75;4991724;28;20036;-37
2023/05/17 01:56:02;;;;;;;12.02;3.20;;;;;;;10.60;58.21;101588.09;4992867;28;22386;-36
2023/05/17 01:58:29;;;;;;;12.60;4.50;;;;;;;10.52;58.23;101584.94;4994472;28;20112;-36
2023/05/17 02:00:59;;;;;;;12.48;2.75;;;;;;;10.50;58.25;101584.19;5011666;28;20031;-36
2023/05/17 02:03:27;;;;;;;13.48;4.00;;;;;;;10.46;58.89;101586.06;4966106;28;20038;-36
2023/05/17 02:05:52;;;;;;;14.95;2.78;;;;;;;10.47;58.94;101592.19;4990898;28;20057;-36
2023/05/17 02:08:20;;;;;;;8.80;2.47;;;;;;;10.43;58.90;101595.88;4992272;28;20476;-35
2023/05/17 02:10:46;;;;;;;14.48;3.00;;;;;;;10.43;58.99;101591.50;4979215;28;20033;-36
2023/05/17 02:13:12;;;;;;;9.65;2.75;;;;;;;10.48;58.94;101593.91;4978708;28;20034;-36
2023/05/17 02:15:40;;;;;;;10.95;3.05;;;;;;;10.43;59.62;101591.50;4966933;28;20022;-37
2023/05/17 02:18:05;;;;;;;11.85;2.85;;;;;;;10.41;59.21;101587.19;4992054;28;20033;-36
2023/05/17 02:20:31;;;;;;;13.88;2.95;;;;;;;10.47;58.50;101587.78;4979111;28;20030;-36
2023/05/17 02:22:56;;;;;;;9.68;2.88;;;;;;;10.50;58.65;101584.19;4996878;28;20072;-36
2023/05/17 02:25:22;;;;;;;13.70;3.05;;;;;;;10.52;58.86;101588.44;4960180;28;20041;-37
2023/05/17 02:27:47;;;;;;;11.05;3.63;;;;;;;10.56;58.59;101575.16;4976002;28;20100;-35
2023/05/17 02:30:15;;;;;;;8.75;2.97;;;;;;;10.51;58.85;101583.25;4966141;28;20038;-36
2023/05/17 02:32:41;;;;;;;8.93;2.28;;;;;;;10.45;59.02;101578.25;4977948;28;20042;-36
2023/05/17 02:35:08;;;;;;;7.85;2.90;;;;;;;10.41;59.06;101587.19;4997070;28;20032;-37
2023/05/17 02:37:33;;;;;;;7.47;3.10;;;;;;;10.40;58.87;101583.72;4991530;28;20485;-36
2023/05/17 02:40:07;;;;;;;12.70;3.00;;;;;;;10.43;58.47;101582.72;4970704;28;20038;-35
2023/05/17 02:42:32;;;;;;;9.90;3.08;;;;;;;10.51;58.35;101583.25;4994786;28;20496;-36
2023/05/17 02:44:58;;;;;;;6.50;2.28;;;;;;;10.50;58.39;101592.06;4968276;28;20049;-36
2023/05/17 02:47:24;;;;;;;10.30;2.42;;;;;;;10.45;58.36;101588.78;4971964;28;20042;-36
2023/05/17 02:49:49;;;;;;;8.20;2.97;;;;;;;10.45;58.36;101583.53;4969697;28;20741;-35
2023/05/17 02:52:15;;;;;;;9.73;2.75;;;;;;;10.45;58.07;101583.53;4981654;28;20044;-36
2023/05/17 02:54:42;;;;;;;11.05;2.45;;;;;;;10.43;58.38;101586.22;4981337;28;20477;-36
2023/05/17 02:57:09;;;;;;;13.25;2.85;;;;;;;10.34;58.55;101590.06;4998289;28;20567;-36
2023/05/17 02:59:34;;;;;;;5.60;2.28;;;;;;;10.36;58.21;101587.38;4995856;28;20049;-36
2023/05/17 03:02:00;;;;;;;7.40;2.65;;;;;;;10.30;58.47;101585.88;4996623;28;20034;-36
2023/05/17 03:04:26;;;;;;;10.93;2.70;;;;;;;10.36;58.17;101596.09;4981683;28;20061;-37
2023/05/17 03:06:51;;;;;;;5.97;1.80;;;;;;;10.28;58.47;101592.13;4980602;28;20507;-36
2023/05/17 03:09:17;;;;;;;4.60;2.10;;;;;;;10.17;58.65;101596.03;4966805;28;20405;-36
2023/05/17 03:11:44;;;;;;;9.73;2.20;;;;;;;10.14;58.99;101592.69;4983379;28;20038;-36
2023/05/17 03:14:10;;;;;;;11.15;2.58;;;;;;;10.11;58.79;101592.81;4997258;28;20457;-36
2023/05/17 03:16:38;;;;;;;9.65;2.53;;;;;;;10.16;58.64;101596.13;5010183;28;20041;-36
2023/05/17 03:19:04;;;;;;;10.50;2.45;;;;;;;10.16;58.74;101593.50;4995632;28;20034;-36
2023/05/17 03:21:29;;;;;;;7.22;2.47;;;;;;;10.19;58.51;101593.38;4995702;28;20045;-36
2023/05/17 03:23:55;;;;;;;11.82;2.30;;;;;;;10.23;58.83;101602.81;4993176;28;20026;-35
2023/05/17 03:26:21;;;;;;;13.10;3.10;;;;;;;10.22;58.85;101604.59;4977864;28;20037;-36
2023/05/17 03:28:47;;;;;;;6.22;2.20;;;;;;;10.30;58.69;101600.78;4978495;28;20042;-36
2023/05/17 03:31:13;;;;;;;8.52;2.95;;;;;;;10.36;58.48;101604.00;4994986;28;20029;-36
2023/05/17 03:33:41;;;;;;;8.52;2.55;;;;;;;10.44;58.61;101603.69;4996521;28;20139;-36
2023/05/17 03:36:06;;;;;;;9.13;4.18;;;;;;;10.44;59.08;101603.69;4996929;28;20076;-36
2023/05/17 03:38:32;;;;;;;9.50;2.65;;;;;;;10.42;59.13;101607.31;4982024;28;20034;-36
2023/05/17 03:40:58;;;;;;;17.30;2.63;;;;;;;10.42;59.34;101605.56;4979198;28;20038;-36
2023/05/17 03:43:23;;;;;;;13.23;3.30;;;;;;;10.43;59.21;101598.50;4976817;28;20038;-36
2023/05/17 03:45:49;;;;;;;8.35;2.80;;;;;;;10.38;59.97;101606.63;4994044;28;20038;-36
2023/05/17 03:48:14;;;;;;;10.35;2.78;;;;;;;10.37;59.94;101612.75;4993256;28;20062;-36
2023/05/17 03:50:40;;;;;;;9.13;2.58;;;;;;;10.39;59.88;101621.47;4992985;28;20037;-36
2023/05/17 03:53:06;;;;;;;8.18;2.55;;;;;;;10.43;60.08;101611.66;4970911;28;20062;-36
2023/05/17 03:55:31;;;;;;;10.70;2.65;;;;;;;10.54;59.88;101619.94;4995861;28;20030;-36
2023/05/17 03:57:57;;;;;;;7.78;2.90;;;;;;;10.52;60.55;101621.78;4995856;28;20379;-36
2023/05/17 04:00:23;;;;;;;8.75;3.40;;;;;;;10.62;59.88;101630.13;4981507;28;20096;-36
2023/05/17 04:02:50;;;;;;;11.07;3.30;;;;;;;10.65;60.54;101635.28;4967514;28;20042;-36
2023/05/17 04:05:16;;;;;;;10.57;2.88;;;;;;;10.64;60.61;101641.47;4979775;28;20037;-36
2023/05/17 04:07:41;;;;;;;10.80;2.97;;;;;;;10.71;60.43;101637.66;4981500;28;20042;-36
2023/05/17 04:10:07;;;;;;;12.82;3.33;;;;;;;10.66;61.44;101634.34;4979615;28;20439;-36
2023/05/17 04:12:34;;;;;;;15.02;3.15;;;;;;;10.70;60.72;101641.19;4998708;28;20034;-36
2023/05/17 04:15:02;;;;;;;11.00;3.70;;;;;;;10.79;60.88;101640.78;4983599;28;20049;-35
2023/05/17 04:17:27;;;;;;;10.68;2.65;;;;;;;10.76;61.15;101642.72;4978230;28;20054;-36
2023/05/17 04:19:53;;;;;;;8.13;2.85;;;;;;;10.82;61.28;101639.78;4980707;28;20064;-36
2023/05/17 04:22:20;;;;;;;12.40;3.22;;;;;;;10.88;61.31;101643.94;4968407;28;20169;-36
2023/05/17 04:24:45;;;;;;;11.00;3.13;;;;;;;10.87;62.06;101653.59;4993050;28;20018;-36
2023/05/17 04:27:11;;;;;;;8.85;3.03;;;;;;;10.82;61.69;101661.72;4992398;28;20058;-37
2023/05/17 04:29:37;;;;;;;15.60;3.38;;;;;;;10.86;61.63;101659.78;4992549;28;20037;-35
2023/05/17 04:32:03;;;;;;;9.48;3.25;;;;;;;10.84;61.98;101664.25;4986710;28;20026;-35
2023/05/17 04:34:30;;;;;;;10.48;3.65;;;;;;;10.88;62.14;101670.28;4964706;28;20033;-36
2023/05/17 04:36:56;;;;;;;16.80;3.42;;;;;;;10.91;61.87;101664.84;4991794;28;20014;-36
2023/05/17 04:39:22;;;;;;;13.63;3.67;;;;;;;10.92;61.68;101677.97;4959067;28;20033;-36
2023/05/17 04:41:48;;;;;;;18.65;3.72;;;;;;;10.82;62.05;101674.00;4990306;28;20022;-36
2023/05/17 04:44:14;;;;;;;10.98;2.88;;;;;;;10.78;62.43;101689.09;4968199;28;20034;-37
2023/05/17 04:46:40;;;;;;;10.52;3.35;;;;;;;10.73;62.45;101692.84;4981672;28;20515;-36
2023/05/17 04:49:06;;;;;;;13.30;4.78;;;;;;;10.73;62.23;101698.13;4996729;28;20057;-36
2023/05/17 04:51:32;;;;;;;17.60;3.42;;;;;;;10.79;61.78;101708.38;4978091;28;20073;-36
2023/05/17 04:53:59;;;;;;;13.15;5.07;;;;;;;10.82;61.97;101717.00;4996121;28;20026;-36
2023/05/17 04:56:26;;;;;;;18.83;4.65;;;;;;;10.81;61.88;101727.63;4979979;28;20044;-36
2023/05/17 04:58:52;;;;;;;13.25;3.80;;;;;;;10.82;61.94;101734.56;4992809;28;20092;-36
2023/05/17 05:01:18;;;;;;;14.13;4.25;;;;;;;10.88;61.70;101731.69;4968693;28;20041;-36
2023/05/17 05:03:43;;;;;;;10.18;3.97;;;;;;;10.89;62.05;101735.19;4994570;28;20108;-36
2023/05/17 05:06:10;;;;;;;8.77;4.15;;;;;;;10.95;61.75;101737.53;4984095;28;20117;-37
2023/05/17 05:08:36;;;;;;;12.00;3.13;;;;;;;11.03;61.90;101747.72;4981304;28;20077;-37
2023/05/17 05:11:02;;;;;;;9.90;2.72;;;;;;;11.01;61.55;101758.34;4990944;28;20023;-35
2023/05/17 05:13:27;;;;;;;10.25;3.65;;;;;;;11.07;61.48;101754.59;4992037;28;20027;-36
2023/05/17 05:15:53;;;;;;;10.40;3.40;;;;;;;11.03;61.76;101753.00;4996999;28;20033;-36
2023/05/17 05:18:21;;;;;;;15.32;3.92;;;;;;;11.00;62.27;101755.75;4993980;28;20411;-36
2023/05/17 05:20:49;;;;;;;11.30;3.53;;;;;;;10.98;61.76;101761.94;4981217;28;20425;-36
2023/05/17 05:23:17;;;;;;;10.43;3.72;;;;;;;11.04;61.32;101773.16;4993060;28;20168;-36
2023/05/17 05:25:43;;;;;;;10.65;3.30;;;;;;;11.10;61.33;101770.25;4980110;28;20391;-36
2023/05/17 05:28:11;;;;;;;10.82;3.28;;;;;;;11.29;60.44;101775.56;4992185;28;20029;-36
2023/05/17 05:30:36;;;;;;;16.38;3.17;;;;;;;11.43;60.16;101777.56;4977956;28;20033;-35
2023/05/17 05:33:02;;;;;;;16.92;4.07;;;;;;;11.44;60.13;101779.28;4975106;28;20030;-36
2023/05/17 05:35:30;;;;;;;12.63;3.70;;;;;;;11.34;60.47;101780.63;4981084;28;20170;-36
2023/05/17 05:37:57;;;;;;;12.32;2.65;;;;;;;11.23;61.07;101778.47;4971147;28;20034;-36
2023/05/17 05:40:22;;;;;;;15.90;5.28;;;;;;;11.23;60.95;101768.78;4993078;28;20041;-36
2023/05/17 05:42:51;;;;;;;10.63;3.70;;;;;;;11.31;60.46;101778.13;4979454;28;20030;-37
2023/05/17 05:45:17;;;;;;;11.20;3.15;;;;;;;11.42;59.96;101765.31;4982629;28;20046;-36
2023/05/17 05:47:45;;;;;;;18.17;3.08;;;;;;;11.44;59.59;101764.34;4994235;28;20026;-37
2023/05/17 05:50:11;;;;;;;11.00;2.90;;;;;;;11.52;59.32;101761.38;4995949;28;20564;-36
2023/05/17 05:52:37;;;;;;;11.93;2.90;;;;;;;11.49;59.46;101774.69;4967294;28;20042;-37
2023/05/17 05:55:05;;;;;;;13.27;3.42;;;;;;;11.46;59.22;101785.34;4966114;28;20231;-37
2023/05/17 05:57:31;;;;;;;15.05;3.15;;;;;;;11.55;59.10;101794.63;4993447;28;20108;-37
2023/05/17 05:59:56;;;;;;;12.90;2.70;;;;;;;11.67;58.82;101790.59;4975420;28;20130;-36
2023/05/17 06:02:25;;;;;;;15.30;2.88;;;;;;;11.74;58.39;101787.59;4998339;28;20038;-36
2023/05/17 06:04:50;;;;;;;10.98;2.85;;;;;;;11.73;58.04;101795.56;4982636;28;20194;-36
2023/05/17 06:07:17;;;;;;;11.45;2.75;;;;;;;11.74;57.49;101797.28;4977741;28;20473;-37
2023/05/17 06:09:42;;;;;;;8.25;2.00;;;;;;;11.76;57.42;101794.59;4984254;28;20893;-36
2023/05/17 06:12:10;;;;;;;14.38;3.05;;;;;;;11.79;57.04;101792.66;4983001;28;20081;-36
2023/05/17 06:14:38;;;;;;;12.18;2.78;;;;;;;11.71;56.73;101800.91;4981438;28;20038;-37
2023/05/17 06:17:04;;;;;;;8.18;2.00;;;;;;;11.77;56.30;101799.78;4992022;28;20030;-36
2023/05/17 06:19:29;;;;;;;10.38;2.42;;;;;;;11.85;56.01;101808.22;4996464;28;20087;-36
2023/05/17 06:21:55;;;;;;;7.28;2.03;;;;;;;12.00;55.84;101816.38;4984512;28;20611;-36
2023/05/17 06:24:21;;;;;;;10.93;2.28;;;;;;;11.99;55.24;101817.28;4999372;28;20029;-36
2023/05/17 06:26:47;;;;;;;13.30;2.75;;;;;;;12.03;55.25;101816.19;4980870;28;20034;-37
2023/05/17 06:29:12;;;;;;;15.52;2.53;;;;;;;12.01;55.14;101804.91;4985247;28;20045;-36
2023/05/17 06:31:38;;;;;;;11.75;2.72;;;;;;;11.95;55.00;101805.13;4996379;28;20034;-38
2023/05/17 06:34:06;;;;;;;9.75;2.33;;;;;;;11.85;55.10;101817.88;4979343;28;20038;-36
2023/05/17 06:36:31;;;;;;;12.55;3.42;;;;;;;11.84;55.24;101809.13;4993446;28;20109;-36
2023/05/17 06:38:57;;;;;;;11.30;2.47;;;;;;;11.72;55.11;101815.81;4980257;28;20188;-36
2023/05/17 06:41:28;;;;;;;11.85;1.75;;;;;;;11.71;54.59;101815.91;4996176;28;20048;-36
2023/05/17 06:43:53;;;;;;;10.00;2.42;;;;;;;11.78;54.91;101803.28;4994657;28;20033;-36
2023/05/17 06:46:19;;;;;;;12.68;1.95;;;;;;;11.90;54.84;101803.56;4967630;28;20038;-36
2023/05/17 06:48:44;;;;;;;10.35;1.65;;;;;;;11.97;54.36;101813.84;4983382;28;20041;-35
2023/05/17 06:51:10;;;;;;;5.75;0.82;;;;;;;11.99;53.21;101817.28;4977892;28;21063;-36
2023/05/17 06:53:36;;;;;;;12.32;1.92;;;;;;;11.98;52.36;101816.41;5001536;28;20124;-35
2023/05/17 06:56:01;;;;;;;10.00;1.45;;;;;;;12.04;52.39;101825.81;4995719;28;20052;-36
2023/05/17 06:58:27;;;;;;;14.02;2.42;;;;;;;12.04;51.89;101828.47;4998332;28;20076;-35
2023/05/17 07:00:53;;;;;;;10.38;2.30;;;;;;;12.07;51.51;101841.53;4968271;28;20034;-36
2023/05/17 07:03:19;;;;;;;8.82;1.88;;;;;;;12.01;51.52;101841.81;4969331;28;20097;-36
2023/05/17 07:05:44;;;;;;;5.80;1.98;;;;;;;12.02;51.50;101849.66;4969038;28;20048;-35
2023/05/17 07:08:14;;;;;;;5.53;1.63;;;;;;;11.95;50.06;101873.72;4982574;28;20113;-36
2023/05/17 07:10:42;;;;;;;10.30;1.90;;;;;;;11.86;51.00;101854.75;5008000;28;20054;-34
2023/05/17 07:13:10;;;;;;;11.43;1.42;;;;;;;11.84;51.14;101871.56;4978428;28;20037;-36
2023/05/17 07:15:37;;;;;;;12.70;1.73;;;;;;;11.86;51.34;101849.47;4973201;28;20048;-37
2023/05/17 07:18:03;;;;;;;12.48;2.15;;;;;;;11.83;51.05;101846.97;4978361;28;20039;-36
2023/05/17 07:20:28;;;;;;;9.80;1.70;;;;;;;11.90;50.24;101871.28;4981728;28;20034;-35
2023/05/17 07:22:55;;;;;;;9.00;1.90;;;;;;;11.95;50.66;101856.09;4986345;28;20030;-35
2023/05/17 07:25:20;;;;;;;9.80;1.65;;;;;;;12.07;50.35;101857.34;4978537;28;20043;-37
2023/05/17 07:27:46;;;;;;;5.57;1.27;;;;;;;11.96;50.21;101875.44;4974893;28;20047;-36
2023/05/17 07:30:12;;;;;;;9.13;1.33;;;;;;;11.81;50.43;101856.72;4994844;28;20105;-36
2023/05/17 07:32:37;;;;;;;12.10;1.23;;;;;;;11.86;50.44;101860.03;4993526;28;20037;-36
2023/05/17 07:35:03;;;;;;;15.80;3.30;;;;;;;12.00;50.19;101882.31;4971378;28;20504;-36
2023/05/17 07:37:28;;;;;;;11.63;2.10;;;;;;;12.01;49.81;101889.31;4968981;28;20038;-35
2023/05/17 07:39:54;;;;;;;7.97;1.83;;;;;;;12.06;50.07;101878.53;4971068;28;20030;-37
2023/05/17 07:42:20;;;;;;;12.60;1.70;;;;;;;12.12;49.93;101892.31;4976775;28;20095;-35
2023/05/17 07:44:50;;;;;;;9.18;1.88;;;;;;;12.22;49.86;101889.22;4987627;28;20046;-38
2023/05/17 07:47:18;;;;;;;11.48;1.92;;;;;;;12.20;49.68;101898.06;4989003;28;20624;-36
2023/05/17 07:49:44;;;;;;;4.85;1.13;;;;;;;12.32;49.52;101899.28;4981958;28;20073;-35
2023/05/17 07:52:10;;;;;;;17.05;2.72;;;;;;;12.40;49.22;101893.66;4970697;28;20066;-35
2023/05/17 07:54:35;;;;;;;24.25;2.50;;;;;;;12.44;48.92;101921.63;4984213;28;20049;-35
2023/05/17 07:57:01;;;;;;;8.68;1.48;;;;;;;12.17;47.11;101916.69;4987104;28;20018;-35
2023/05/17 07:59:26;;;;;;;16.63;2.63;;;;;;;12.09;47.91;101920.63;4978865;28;20038;-35
2023/05/17 08:01:53;;;;;;;12.02;3.45;;;;;;;12.02;47.32;101939.34;4995581;28;20026;-35
2023/05/17 08:04:22;;;;;;;10.55;1.70;;;;;;;11.93;47.47;101928.31;4994818;28;20449;-36
2023/05/17 08:06:48;;;;;;;12.55;1.58;;;;;;;12.02;47.74;101938.50;4980893;28;20041;-35
2023/05/17 08:09:17;;;;;;;5.53;1.83;;;;;;;12.09;46.88;101932.00;4996292;28;20029;-36
2023/05/17 08:11:44;;;;;;;13.88;2.95;;;;;;;12.15;47.53;101937.03;4996927;28;20057;-37
2023/05/17 08:14:16;;;;;;;14.18;2.90;;;;;;;12.20;47.75;101947.38;4996432;28;20040;-36
2023/05/17 08:16:45;;;;;;;14.68;1.65;;;;;;;12.31;47.71;101942.44;4978462;28;20365;-37
2023/05/17 08:19:12;;;;;;;13.18;2.17;;;;;;;12.31;47.17;101933.69;4978809;28;20452;-35
2023/05/17 08:21:38;;;;;;;13.30;1.90;;;;;;;12.28;46.70;101954.94;4996652;28;20477;-35
2023/05/17 08:24:07;;;;;;;8.00;1.52;;;;;;;12.36;46.64;101942.22;4976667;28;20034;-35
2023/05/17 08:26:33;;;;;;;8.38;1.90;;;;;;;12.50;46.75;101947.72;4982085;28;20026;-36
2023/05/17 08:29:01;;;;;;;6.13;1.33;;;;;;;12.59;46.40;101945.59;4995775;28;20034;-36
2023/05/17 08:31:27;;;;;;;8.35;1.52;;;;;;;12.47;46.88;101945.25;4978576;28;20129;-35
2023/05/17 08:33:57;;;;;;;9.38;1.70;;;;;;;12.56;46.82;101937.81;4967627;28;20057;-35
2023/05/17 08:36:23;;;;;;;12.52;1.52;;;;;;;12.55;46.69;101934.31;4994470;28;20034;-35
2023/05/17 08:38:50;;;;;;;16.52;2.63;;;;;;;12.68;46.85;101941.66;4996273;28;20095;-35
2023/05/17 08:41:19;;;;;;;12.70;3.75;;;;;;;12.73;46.15;101940.50;4991166;28;20038;-36
2023/05/17 08:43:46;;;;;;;10.77;2.78;;;;;;;12.74;46.56;101934.31;4975397;28;20038;-36
2023/05/17 08:46:14;;;;;;;13.20;2.05;;;;;;;12.82;46.42;101947.13;4996368;28;20073;-36
2023/05/17 08:48:42;;;;;;;27.65;3.03;;;;;;;12.90;46.51;101937.03;4999294;28;20049;-36
2023/05/17 08:51:10;;;;;;;11.07;1.65;;;;;;;12.99;46.07;101930.47;4995624;28;20033;-36
2023/05/17 08:53:37;;;;;;;12.00;1.70;;;;;;;13.05;46.37;101946.03;4997900;28;20038;-36
2023/05/17 08:56:05;;;;;;;10.30;1.75;;;;;;;13.05;46.30;101951.31;4983108;28;20609;-36
2023/05/17 08:58:34;;;;;;;6.55;2.03;;;;;;;12.97;44.97;101964.03;4998610;28;20029;-36
2023/05/17 09:01:04;;;;;;;11.75;1.50;;;;;;;12.93;45.01;101951.91;4997481;28;20065;-35
2023/05/17 09:03:33;;;;;;;15.77;2.42;;;;;;;13.02;44.88;101942.66;4979226;28;20081;-35
2023/05/17 09:05:59;;;;;;;7.40;1.33;;;;;;;13.10;44.82;101964.28;4994256;28;20034;-37
2023/05/17 09:08:26;;;;;;;7.55;1.67;;;;;;;13.17;44.45;101959.56;4966592;28;20931;-36
2023/05/17 09:10:53;;;;;;;5.80;0.90;;;;;;;13.19;44.01;101960.34;4977571;28;20515;-37
2023/05/17 09:13:18;;;;;;;8.45;1.83;;;;;;;13.20;43.91;101970.81;4993514;28;20069;-36
2023/05/17 09:15:46;;;;;;;7.25;1.25;;;;;;;13.19;43.42;101949.78;4979339;28;20030;-36
2023/05/17 09:18:13;;;;;;;7.10;1.42;;;;;;;13.15;43.74;101958.78;4992599;28;20045;-36
2023/05/17 09:20:39;;;;;;;7.45;1.30;;;;;;;13.14;43.97;101947.38;4998633;28;20065;-35
2023/05/17 09:23:12;;;;;;;12.30;1.88;;;;;;;13.20;43.92;101948.84;4977411;28;20036;-35
2023/05/17 09:25:45;;;;;;;8.07;1.55;;;;;;;13.22;43.91;101946.97;4995574;28;20041;-36
2023/05/17 09:28:11;;;;;;;7.55;1.30;;;;;;;13.24;43.44;101945.09;4995097;28;20096;-36
2023/05/17 09:30:40;;;;;;;9.45;1.80;;;;;;;13.25;42.93;101958.25;4994895;28;20022;-35
2023/05/17 09:33:06;;;;;;;11.68;1.25;;;;;;;13.19;42.93;101955.06;4995255;28;20032;-35
2023/05/17 09:35:33;;;;;;;10.20;1.52;;;;;;;13.19;43.11;101944.47;4981377;28;20054;-36
2023/05/17 09:38:11;;;;;;;14.05;1.65;;;;;;;13.26;42.40;101953.81;4991947;28;20037;-36
2023/05/17 09:40:42;;;;;;;8.95;1.60;;;;;;;13.19;42.25;101953.25;4969847;28;20025;-37
2023/05/17 09:43:08;;;;;;;12.60;2.08;;;;;;;13.20;42.76;101962.06;4994684;28;20025;-36
2023/05/17 09:45:36;;;;;;;7.90;2.15;;;;;;;13.24;42.33;101955.66;4994604;28;20038;-36
2023/05/17 09:48:12;;;;;;;10.15;1.48;;;;;;;13.35;41.71;101974.50;4978566;28;20484;-36
2023/05/17 09:50:45;;;;;;;7.75;1.55;;;;;;;13.49;42.35;101975.63;4995136;28;20045;-35
2023/05/17 09:53:31;;;;;;;11.25;2.60;;;;;;;13.59;41.62;101971.59;4998997;28;20108;-37
2023/05/17 09:55:59;;;;;;;7.40;1.77;;;;;;;13.66;42.07;101973.00;4993084;28;20161;-36
2023/05/17 09:58:29;;;;;;;7.03;2.30;;;;;;;13.80;41.03;101992.59;4978808;28;20042;-37
2023/05/17 10:01:00;;;;;;;8.30;1.67;;;;;;;13.79;40.47;101988.22;4996096;28;20492;-36
2023/05/17 10:03:31;;;;;;;9.55;1.20;;;;;;;13.80;40.97;101997.88;4969661;28;20042;-36
2023/05/17 10:06:11;;;;;;;5.85;1.17;;;;;;;13.79;41.45;101980.28;4984614;28;20049;-36
2023/05/17 10:08:43;;;;;;;9.50;1.10;;;;;;;13.93;41.58;101987.50;5002926;28;20097;-36
2023/05/17 10:11:09;;;;;;;6.85;1.65;;;;;;;14.00;41.17;101981.81;4997712;28;20397;-36
2023/05/17 10:13:43;;;;;;;10.65;1.50;;;;;;;14.13;40.72;102007.66;4984025;28;20041;-36
2023/05/17 10:16:10;;;;;;;5.03;1.60;;;;;;;14.14;40.93;101978.44;4995750;28;20030;-36
2023/05/17 10:18:39;;;;;;;10.70;1.90;;;;;;;14.26;40.79;101971.66;4982139;28;20175;-36
2023/05/17 10:21:06;;;;;;;14.15;1.80;;;;;;;14.35;40.84;101994.13;4995165;28;20033;-37
2023/05/17 10:23:33;;;;;;;11.50;2.78;;;;;;;14.33;40.80;101993.34;4981958;28;20033;-37
2023/05/17 10:26:00;;;;;;;7.28;1.23;;;;;;;14.26;40.35;101998.13;4997093;28;20132;-36
2023/05/17 10:28:27;;;;;;;9.95;1.67;;;;;;;14.31;40.33;101996.06;4995068;28;20030;-37
2023/05/17 10:30:56;;;;;;;7.90;1.08;;;;;;;14.33;40.26;101988.88;4996495;28;20049;-36
2023/05/17 10:33:22;;;;;;;10.85;2.72;;;;;;;14.44;40.38;101980.38;4996178;28;22000;-37
2023/05/17 10:35:51;;;;;;;5.95;1.50;;;;;;;14.58;40.65;101987.56;5001207;28;20030;-37
2023/05/17 10:38:17;;;;;;;12.55;1.88;;;;;;;14.65;40.28;102006.63;4985095;28;20042;-36
2023/05/17 10:40:50;;;;;;;7.10;1.15;;;;;;;14.65;39.86;101985.44;4979746;28;20037;-36
2023/05/17 10:43:17;;;;;;;9.48;1.92;;;;;;;14.59;39.81;101989.28;4995167;28;20077;-36
2023/05/17 10:45:43;;;;;;;8.15;1.70;;;;;;;14.48;39.96;101981.06;4989325;28;20033;-36
2023/05/17 10:48:09;;;;;;;10.38;1.25;;;;;;;14.46;39.98;101996.16;4972922;28;20046;-36
2023/05/17 10:50:38;;;;;;;9.80;1.70;;;;;;;14.57;40.17;101996.47;4996321;28;20029;-36
2023/05/17 10:53:08;;;;;;;5.32;1.42;;;;;;;14.68;39.96;101997.69;4999281;28;20572;-36
2023/05/17 10:55:41;;;;;;;6.35;1.30;;;;;;;14.63;39.52;102024.41;4978385;28;20030;-35
2023/05/17 10:58:10;;;;;;;6.20;1.73;;;;;;;14.62;40.03;102001.50;4997281;28;20029;-35
2023/05/17 11:00:43;;;;;;;10.77;1.38;;;;;;;14.62;39.09;101991.75;4998216;28;20045;-37
2023/05/17 11:03:14;;;;;;;8.43;1.45;;;;;;;14.53;38.98;102009.94;4996386;28;20038;-36
2023/05/17 11:06:13;;;;;;;10.77;2.17;;;;;;;14.58;39.14;101992.00;4984628;28;20046;-37
2023/05/17 11:09:02;;;;;;;13.73;1.88;;;;;;;14.65;39.17;101993.38;5012767;28;20125;-37
2023/05/17 11:11:31;;;;;;;7.60;1.52;;;;;;;14.72;39.30;101999.22;4997926;28;20443;-36
2023/05/17 11:14:00;;;;;;;10.63;1.67;;;;;;;14.65;39.24;101993.38;4975749;28;20038;-36
2023/05/17 11:16:34;;;;;;;7.90;1.52;;;;;;;14.80;38.20;101991.69;4981073;28;20445;-37
2023/05/17 11:19:11;;;;;;;12.40;1.80;;;;;;;14.86;38.71;102009.91;4993788;28;20026;-36
2023/05/17 11:21:48;;;;;;;9.02;1.83;;;;;;;14.85;38.19;101994.09;4994052;28;20038;-37
2023/05/17 11:24:30;;;;;;;9.55;1.40;;;;;;;14.91;37.55;102005.19;4991618;28;20432;-37